createdAt,value
2022-10-08T00:01:56.821Z,2.60
2022-10-08T00:04:24.628Z,2.90
2022-10-08T00:06:52.303Z,2.88
2022-10-08T00:09:19.951Z,2.83
2022-10-08T00:11:48.933Z,3.05
2022-10-08T00:14:16.768Z,2.63
2022-10-08T00:16:44.436Z,3.05
2022-10-08T00:19:14.330Z,2.85
2022-10-08T00:21:43.096Z,3.05
2022-10-08T00:24:14.031Z,2.78
2022-10-08T00:26:44.033Z,3.13
2022-10-08T00:29:14.500Z,2.78
2022-10-08T00:31:44.349Z,2.88
2022-10-08T00:34:13.243Z,2.90
2022-10-08T00:36:41.639Z,2.70
2022-10-08T00:39:10.028Z,2.90
2022-10-08T00:41:38.818Z,3.45
2022-10-08T00:44:22.099Z,2.60
2022-10-08T00:46:51.973Z,2.63
2022-10-08T00:49:21.235Z,2.65
2022-10-08T00:51:51.588Z,3.00
2022-10-08T00:54:20.083Z,2.42
2022-10-08T00:56:48.703Z,2.80
2022-10-08T00:59:16.811Z,2.95
2022-10-08T01:07:43.119Z,2.60
2022-10-08T01:10:15.820Z,3.00
2022-10-08T01:12:47.843Z,3.08
2022-10-08T01:15:22.331Z,3.45
2022-10-08T01:18:11.572Z,3.13
2022-10-08T01:20:43.552Z,3.30
2022-10-08T01:23:26.029Z,3.03
2022-10-08T01:25:57.256Z,2.90
2022-10-08T01:28:29.237Z,3.13
2022-10-08T01:31:00.364Z,3.53
2022-10-08T01:33:30.084Z,3.70
2022-10-08T01:35:58.931Z,3.58
2022-10-08T01:38:29.117Z,3.35
2022-10-08T01:40:59.161Z,3.30
2022-10-08T01:43:31.634Z,3.03
2022-10-08T01:46:03.243Z,3.58
2022-10-08T01:48:34.034Z,3.08
2022-10-08T01:51:04.013Z,2.90
2022-10-08T01:53:35.049Z,3.10
2022-10-08T01:56:04.031Z,3.45
2022-10-08T01:58:35.189Z,2.58
2022-10-08T02:01:06.030Z,3.10
2022-10-08T02:03:33.788Z,2.78
2022-10-08T02:06:04.211Z,2.78
2022-10-08T02:08:31.974Z,2.40
2022-10-08T02:10:59.650Z,2.80
2022-10-08T02:13:27.564Z,2.90
2022-10-08T02:16:01.313Z,2.85
2022-10-08T02:18:34.282Z,2.60
2022-10-08T02:21:04.865Z,2.85
2022-10-08T02:23:38.351Z,2.83
2022-10-08T02:26:06.892Z,2.83
2022-10-08T02:28:37.453Z,3.03
2022-10-08T02:31:07.628Z,2.50
2022-10-08T02:33:37.630Z,2.60
2022-10-08T02:36:07.098Z,3.03
2022-10-08T02:38:36.050Z,3.10
2022-10-08T02:41:04.918Z,2.67
2022-10-08T02:43:33.218Z,2.80
2022-10-08T02:46:02.355Z,2.92
2022-10-08T02:48:32.651Z,2.70
2022-10-08T02:51:02.991Z,2.95
2022-10-08T02:53:30.877Z,3.00
2022-10-08T02:56:05.602Z,2.60
2022-10-08T02:58:33.576Z,2.92
2022-10-08T03:01:04.530Z,2.85
2022-10-08T03:03:35.465Z,2.47
2022-10-08T03:06:05.065Z,2.35
2022-10-08T03:08:33.738Z,3.05
2022-10-08T03:13:47.754Z,3.05
2022-10-08T03:16:17.327Z,2.40
2022-10-08T03:18:46.981Z,2.47
2022-10-08T03:21:15.949Z,2.60
2022-10-08T03:23:43.707Z,2.95
2022-10-08T03:26:11.347Z,2.65
2022-10-08T03:28:39.050Z,2.65
2022-10-08T03:31:06.994Z,2.90
2022-10-08T03:33:34.762Z,2.72
2022-10-08T03:36:04.187Z,2.95
2022-10-08T03:38:34.576Z,2.60
2022-10-08T03:41:02.587Z,2.67
2022-10-08T03:43:32.048Z,3.13
2022-10-08T03:45:59.767Z,3.00
2022-10-08T03:48:28.246Z,3.00
2022-10-08T03:50:57.167Z,2.67
2022-10-08T03:53:26.826Z,3.05
2022-10-08T03:55:54.916Z,2.97
2022-10-08T03:58:22.581Z,2.78
2022-10-08T04:00:57.163Z,2.90
2022-10-08T04:03:24.809Z,3.10
2022-10-08T04:05:52.450Z,3.27
2022-10-08T04:08:20.406Z,3.30
2022-10-08T04:10:49.306Z,2.92
2022-10-08T04:13:17.459Z,3.13
2022-10-08T04:15:47.195Z,2.72
2022-10-08T04:18:15.039Z,2.85
2022-10-08T04:20:42.675Z,2.83
2022-10-08T04:23:10.569Z,2.53
2022-10-08T04:25:38.225Z,3.08
2022-10-08T04:28:07.218Z,2.85
2022-10-08T04:30:34.977Z,2.50
2022-10-08T04:33:02.662Z,2.90
2022-10-08T04:35:30.305Z,2.35
2022-10-08T04:37:57.974Z,2.65
2022-10-08T04:40:25.643Z,3.03
2022-10-08T04:42:53.341Z,3.08
2022-10-08T04:45:22.272Z,2.60
2022-10-08T04:47:50.992Z,2.50
2022-10-08T04:50:18.748Z,2.60
2022-10-08T04:52:48.683Z,2.80
2022-10-08T04:55:16.640Z,2.90
2022-10-08T04:57:44.308Z,2.70
2022-10-08T05:00:18.111Z,2.92
2022-10-08T05:02:48.117Z,2.45
2022-10-08T05:05:16.438Z,2.58
2022-10-08T05:07:44.441Z,2.72
2022-10-08T05:10:12.176Z,2.63
2022-10-08T05:12:39.834Z,2.50
2022-10-08T05:15:08.044Z,2.40
2022-10-08T05:17:35.757Z,2.65
2022-10-08T05:20:04.856Z,2.63
2022-10-08T05:22:32.502Z,2.53
2022-10-08T05:25:00.182Z,2.60
2022-10-08T05:27:27.839Z,2.00
2022-10-08T05:29:55.493Z,2.70
2022-10-08T05:32:23.119Z,3.05
2022-10-08T05:34:50.824Z,2.97
2022-10-08T05:37:20.016Z,2.72
2022-10-08T05:39:50.473Z,2.83
2022-10-08T05:42:18.169Z,2.80
2022-10-08T05:44:45.883Z,2.70
2022-10-08T05:47:13.617Z,2.30
2022-10-08T05:49:41.231Z,2.85
2022-10-08T05:52:08.908Z,2.58
2022-10-08T05:54:37.861Z,2.47
2022-10-08T05:57:05.556Z,2.55
2022-10-08T05:59:33.223Z,2.95
2022-10-08T06:02:00.919Z,3.30
2022-10-08T06:04:28.736Z,2.63
2022-10-08T06:06:56.462Z,3.30
2022-10-08T06:09:24.347Z,2.72
2022-10-08T06:11:53.369Z,2.50
2022-10-08T06:14:21.183Z,2.60
2022-10-08T06:16:49.045Z,2.50
2022-10-08T06:19:17.134Z,2.80
2022-10-08T06:21:44.801Z,2.30
2022-10-08T06:24:13.464Z,2.63
2022-10-08T06:26:42.618Z,2.25
2022-10-08T06:29:15.103Z,2.65
2022-10-08T06:31:42.918Z,2.50
2022-10-08T06:34:10.787Z,2.30
2022-10-08T06:36:38.669Z,2.72
2022-10-08T06:39:07.684Z,2.60
2022-10-08T06:41:35.711Z,2.60
2022-10-08T06:44:04.119Z,2.70
2022-10-08T06:46:33.326Z,2.65
2022-10-08T06:49:01.728Z,3.10
2022-10-08T06:51:29.835Z,2.72
2022-10-08T06:54:01.631Z,2.75
2022-10-08T06:56:35.897Z,2.60
2022-10-08T06:59:04.066Z,2.67
2022-10-08T07:01:34.692Z,2.72
2022-10-08T07:04:02.712Z,2.75
2022-10-08T07:06:30.540Z,2.63
2022-10-08T07:08:59.048Z,2.63
2022-10-08T07:11:27.966Z,2.90
2022-10-08T07:13:56.153Z,2.78
2022-10-08T07:16:25.196Z,2.58
2022-10-08T07:18:56.068Z,3.03
2022-10-08T07:21:23.991Z,2.80
2022-10-08T07:23:52.829Z,2.97
2022-10-08T07:26:21.155Z,2.80
2022-10-08T07:28:50.173Z,2.92
2022-10-08T07:31:19.220Z,3.42
2022-10-08T07:33:47.106Z,2.88
2022-10-08T07:36:16.708Z,2.72
2022-10-08T07:38:44.406Z,3.03
2022-10-08T07:41:13.113Z,3.10
2022-10-08T07:43:41.344Z,3.00
2022-10-08T07:46:09.542Z,3.03
2022-10-08T07:48:37.287Z,2.92
2022-10-08T07:51:08.932Z,3.03
2022-10-08T07:53:37.982Z,3.60
2022-10-08T07:56:05.771Z,3.20
2022-10-08T07:58:33.862Z,2.90
2022-10-08T08:01:03.148Z,3.08
2022-10-08T08:03:30.947Z,2.80
2022-10-08T08:06:01.343Z,2.72
2022-10-08T08:08:29.000Z,2.60
2022-10-08T08:10:58.551Z,2.45
2022-10-08T08:13:26.768Z,2.63
2022-10-08T08:15:58.231Z,2.88
2022-10-08T08:18:26.309Z,2.60
2022-10-08T08:20:58.230Z,2.33
2022-10-08T08:23:29.140Z,2.63
2022-10-08T08:26:00.559Z,2.60
2022-10-08T08:28:28.728Z,3.45
2022-10-08T08:30:57.171Z,2.83
2022-10-08T08:33:24.879Z,2.22
2022-10-08T08:35:53.192Z,2.88
2022-10-08T08:38:20.882Z,2.63
2022-10-08T08:40:48.664Z,2.67
2022-10-08T08:43:17.646Z,2.63
2022-10-08T08:45:48.032Z,2.97
2022-10-08T08:48:18.186Z,2.63
2022-10-08T08:50:48.907Z,3.10
2022-10-08T08:53:16.858Z,2.20
2022-10-08T08:55:46.422Z,2.75
2022-10-08T08:58:17.678Z,3.20
2022-10-08T09:00:50.170Z,3.15
2022-10-08T09:03:21.307Z,3.33
2022-10-08T09:05:50.867Z,2.85
2022-10-08T09:08:19.788Z,2.97
2022-10-08T09:10:49.441Z,3.05
2022-10-08T09:13:19.159Z,3.30
2022-10-08T09:15:48.217Z,3.70
2022-10-08T09:18:16.429Z,3.22
2022-10-08T09:20:44.632Z,3.50
2022-10-08T09:23:15.092Z,3.13
2022-10-08T09:25:43.233Z,3.05
2022-10-08T09:28:11.080Z,3.10
2022-10-08T09:30:40.014Z,3.58
2022-10-08T09:33:21.500Z,3.05
2022-10-08T09:35:49.818Z,3.45
2022-10-08T09:38:21.082Z,3.50
2022-10-08T09:41:00.172Z,3.55
2022-10-08T09:43:28.062Z,3.30
2022-10-08T09:45:55.796Z,3.05
2022-10-08T09:48:25.725Z,2.92
2022-10-08T09:50:56.021Z,3.10
2022-10-08T09:53:24.645Z,3.03
2022-10-08T09:55:55.374Z,3.50
2022-10-08T09:58:23.346Z,2.63
2022-10-08T10:00:59.909Z,3.08
2022-10-08T10:03:29.386Z,2.67
2022-10-08T10:06:20.360Z,3.22
2022-10-08T10:08:51.797Z,2.65
2022-10-08T10:11:22.731Z,2.80
2022-10-08T10:13:51.262Z,3.28
2022-10-08T10:16:21.929Z,2.60
2022-10-08T10:18:54.530Z,2.88
2022-10-08T10:21:24.900Z,2.75
2022-10-08T10:24:05.349Z,2.83
2022-10-08T10:26:35.983Z,3.17
2022-10-08T10:29:07.325Z,3.25
2022-10-08T10:31:36.277Z,2.60
2022-10-08T10:34:08.303Z,3.15
2022-10-08T10:36:37.525Z,2.40
2022-10-08T10:39:09.543Z,2.65
2022-10-08T10:41:43.084Z,2.47
2022-10-08T10:44:12.359Z,2.35
2022-10-08T10:46:41.846Z,3.03
2022-10-08T10:49:14.341Z,2.95
2022-10-08T10:51:51.846Z,3.20
2022-10-08T10:54:24.691Z,3.03
2022-10-08T10:56:55.002Z,2.70
2022-10-08T10:59:29.373Z,3.35
2022-10-08T11:02:01.690Z,3.05
2022-10-08T11:04:39.261Z,3.20
2022-10-08T11:07:14.573Z,3.13
2022-10-08T11:09:43.987Z,2.85
2022-10-08T11:12:21.685Z,3.40
2022-10-08T11:14:56.019Z,3.38
2022-10-08T11:17:30.964Z,3.38
2022-10-08T11:20:03.753Z,3.38
2022-10-08T11:22:39.038Z,3.40
2022-10-08T11:25:16.043Z,3.90
2022-10-08T11:27:47.380Z,3.88
2022-10-08T11:30:18.762Z,4.65
2022-10-08T11:32:51.098Z,4.35
2022-10-08T11:35:23.521Z,4.18
2022-10-08T11:37:54.530Z,3.92
2022-10-08T11:40:24.059Z,4.45
2022-10-08T11:42:57.926Z,4.00
2022-10-08T11:45:30.746Z,4.30
2022-10-08T11:47:59.793Z,4.22
2022-10-08T11:50:30.271Z,5.00
2022-10-08T11:53:00.719Z,4.80
2022-10-08T11:55:30.600Z,4.68
2022-10-08T11:58:08.041Z,4.32
2022-10-08T12:00:39.323Z,4.65
2022-10-08T12:03:08.266Z,4.75
2022-10-08T12:05:40.860Z,4.85
2022-10-08T12:08:08.679Z,4.15
2022-10-08T12:10:36.876Z,4.80
2022-10-08T12:13:22.471Z,4.47
2022-10-08T12:15:59.711Z,5.07
2022-10-08T12:18:32.084Z,5.13
2022-10-08T12:21:09.655Z,4.95
2022-10-08T12:23:40.211Z,5.97
2022-10-08T12:26:10.141Z,5.82
2022-10-08T12:28:39.601Z,5.60
2022-10-08T12:31:18.739Z,5.93
2022-10-08T12:33:55.490Z,5.93
2022-10-08T12:36:28.147Z,5.95
2022-10-08T12:38:59.470Z,6.18
2022-10-08T12:41:29.171Z,6.13
2022-10-08T12:44:01.253Z,6.20
2022-10-08T12:46:34.808Z,6.00
2022-10-08T12:49:05.033Z,5.85
2022-10-08T12:51:37.430Z,6.20
2022-10-08T12:54:06.474Z,6.85
2022-10-08T12:56:34.208Z,6.38
2022-10-08T12:59:04.109Z,5.60
2022-10-08T13:01:32.615Z,6.22
2022-10-08T13:04:08.315Z,6.53
2022-10-08T13:06:36.177Z,6.53
2022-10-08T13:09:14.678Z,7.25
2022-10-08T13:11:43.459Z,6.60
2022-10-08T13:14:24.142Z,7.13
2022-10-08T13:16:51.828Z,6.47
2022-10-08T13:19:20.655Z,6.93
2022-10-08T13:21:56.224Z,6.40
2022-10-08T13:24:33.961Z,7.13
2022-10-08T13:27:01.638Z,7.35
2022-10-08T13:29:32.461Z,6.57
2022-10-08T13:32:00.956Z,6.72
2022-10-08T13:34:30.139Z,6.95
2022-10-08T13:36:58.982Z,7.40
2022-10-08T13:39:27.951Z,8.80
2022-10-08T13:41:57.792Z,9.38
2022-10-08T13:44:26.102Z,8.25
2022-10-08T13:46:54.353Z,7.07
2022-10-08T13:49:23.958Z,6.78
2022-10-08T13:52:11.546Z,6.90
2022-10-08T13:57:25.703Z,6.88
2022-10-08T13:59:53.363Z,7.45
2022-10-08T14:02:21.264Z,6.63
2022-10-08T14:04:49.122Z,6.35
2022-10-08T14:07:19.844Z,5.95
2022-10-08T14:09:47.595Z,5.38
2022-10-08T14:12:15.410Z,5.30
2022-10-08T14:14:44.410Z,6.35
2022-10-08T14:17:12.321Z,6.00
2022-10-08T14:19:40.014Z,6.07
2022-10-08T14:22:08.046Z,6.28
2022-10-08T14:24:35.694Z,5.53
2022-10-08T14:27:08.138Z,5.35
2022-10-08T14:29:36.608Z,6.03
2022-10-08T14:32:07.887Z,4.97
2022-10-08T14:34:35.616Z,5.90
2022-10-08T14:37:03.646Z,5.25
2022-10-08T14:39:31.473Z,5.32
2022-10-08T14:41:59.539Z,6.05
2022-10-08T14:44:27.279Z,7.05
2022-10-08T14:46:54.964Z,6.55
2022-10-08T14:49:41.787Z,6.63
2022-10-08T14:52:10.872Z,5.97
2022-10-08T14:54:39.540Z,5.78
2022-10-08T14:57:07.268Z,6.28
2022-10-08T14:59:39.687Z,6.55
2022-10-08T15:02:07.970Z,6.38
2022-10-08T15:04:35.703Z,5.75
2022-10-08T15:07:03.368Z,5.43
2022-10-08T15:09:37.173Z,4.85
2022-10-08T15:12:04.860Z,5.20
2022-10-08T15:14:37.785Z,5.90
2022-10-08T15:17:06.010Z,4.88
2022-10-08T15:19:33.696Z,5.53
2022-10-08T15:22:01.321Z,13.80
2022-10-08T15:24:29.020Z,10.55
2022-10-08T15:26:57.994Z,7.15
2022-10-08T15:29:25.637Z,7.22
2022-10-08T15:31:53.333Z,5.32
2022-10-08T15:34:21.553Z,4.97
2022-10-08T15:36:49.328Z,5.70
2022-10-08T15:39:19.155Z,4.70
2022-10-08T15:41:48.024Z,5.30
2022-10-08T15:44:18.598Z,5.43
2022-10-08T15:46:46.657Z,6.35
2022-10-08T15:49:14.537Z,8.13
2022-10-08T15:51:42.737Z,6.22
2022-10-08T15:54:10.408Z,5.63
2022-10-08T15:56:38.256Z,5.47
2022-10-08T15:59:06.106Z,5.13
2022-10-08T16:01:35.097Z,4.50
2022-10-08T16:04:02.774Z,3.75
2022-10-08T16:06:33.316Z,3.90
2022-10-08T16:09:01.010Z,4.07
2022-10-08T16:11:29.718Z,3.42
2022-10-08T16:13:59.474Z,3.28
2022-10-08T16:16:27.555Z,3.28
2022-10-08T16:18:57.846Z,2.70
2022-10-08T16:21:25.914Z,2.70
2022-10-08T16:23:53.613Z,3.00
2022-10-08T16:26:22.058Z,3.05
2022-10-08T16:28:50.436Z,2.42
2022-10-08T16:31:18.274Z,2.85
2022-10-08T16:33:46.619Z,2.45
2022-10-08T16:36:16.006Z,2.95
2022-10-08T16:38:43.741Z,2.80
2022-10-08T16:41:12.525Z,3.25
2022-10-08T16:43:40.227Z,3.13
2022-10-08T16:46:14.197Z,3.28
2022-10-08T16:48:42.137Z,3.10
2022-10-08T16:51:09.857Z,2.83
2022-10-08T16:53:38.840Z,3.35
2022-10-08T16:56:25.226Z,2.80
2022-10-08T16:58:53.367Z,3.30
2022-10-08T17:01:21.372Z,2.78
2022-10-08T17:03:49.774Z,3.00
2022-10-08T17:06:18.353Z,2.53
2022-10-08T17:08:47.991Z,2.35
2022-10-08T17:11:16.989Z,2.53
2022-10-08T17:13:45.320Z,2.88
2022-10-08T17:16:13.753Z,2.50
2022-10-08T17:18:43.145Z,2.67
2022-10-08T17:21:11.529Z,2.55
2022-10-08T17:23:39.260Z,2.63
2022-10-08T17:26:09.161Z,2.58
2022-10-08T17:28:38.478Z,2.55
2022-10-08T17:31:07.403Z,2.53
2022-10-08T17:33:36.375Z,2.42
2022-10-08T17:36:05.600Z,2.25
2022-10-08T17:38:33.529Z,2.20
2022-10-08T17:41:01.180Z,2.83
2022-10-08T17:43:30.399Z,3.00
2022-10-08T17:46:06.452Z,2.72
2022-10-08T17:48:34.252Z,3.40
2022-10-08T17:51:02.811Z,2.67
2022-10-08T17:53:30.687Z,3.38
2022-10-08T17:55:58.905Z,3.75
2022-10-08T17:58:26.560Z,2.90
2022-10-08T18:01:02.750Z,3.00
2022-10-08T18:03:30.648Z,3.03
2022-10-08T18:05:59.504Z,3.00
2022-10-08T18:08:28.525Z,3.42
2022-10-08T18:10:56.226Z,3.60
2022-10-08T18:13:23.911Z,2.88
2022-10-08T18:15:51.608Z,2.90
2022-10-08T18:18:21.019Z,2.88
2022-10-08T18:20:56.489Z,2.97
2022-10-08T18:23:24.539Z,3.30
2022-10-08T18:25:54.049Z,2.95
2022-10-08T18:28:23.024Z,3.08
2022-10-08T18:30:50.798Z,3.33
2022-10-08T18:33:22.730Z,2.63
2022-10-08T18:35:53.499Z,2.92
2022-10-08T18:38:21.188Z,3.75
2022-10-08T18:40:49.700Z,4.03
2022-10-08T18:43:17.353Z,3.60
2022-10-08T18:45:45.086Z,2.90
2022-10-08T18:48:12.686Z,3.10
2022-10-08T18:50:40.349Z,2.80
2022-10-08T18:53:09.321Z,2.75
2022-10-08T18:55:36.947Z,2.95
2022-10-08T18:58:04.579Z,2.75
2022-10-08T19:00:32.739Z,3.53
2022-10-08T19:03:00.631Z,2.78
2022-10-08T19:05:28.358Z,3.00
2022-10-08T19:07:56.019Z,2.90
2022-10-08T19:10:25.269Z,3.00
2022-10-08T19:12:53.036Z,3.03
2022-10-08T19:15:21.149Z,2.50
2022-10-08T19:17:48.784Z,2.70
2022-10-08T19:20:16.479Z,2.40
2022-10-08T19:22:44.121Z,2.70
2022-10-08T19:25:11.784Z,2.35
2022-10-08T19:27:40.753Z,2.20
2022-10-08T19:30:08.885Z,2.80
2022-10-08T19:32:36.629Z,3.00
2022-10-08T19:35:04.348Z,4.95
2022-10-08T19:37:32.127Z,3.63
2022-10-08T19:39:59.765Z,3.13
2022-10-08T19:42:27.443Z,3.28
2022-10-08T19:44:56.487Z,2.60
2022-10-08T19:47:24.273Z,2.78
2022-10-08T19:49:51.907Z,2.35
2022-10-08T19:52:19.587Z,3.08
2022-10-08T19:54:47.207Z,2.60
2022-10-08T19:57:14.989Z,2.60
2022-10-08T19:59:42.616Z,3.05
2022-10-08T20:02:11.778Z,2.70
2022-10-08T20:04:39.751Z,2.40
2022-10-08T20:07:07.428Z,3.20
2022-10-08T20:09:36.171Z,2.90
2022-10-08T20:12:04.037Z,2.65
2022-10-08T20:14:31.779Z,2.78
2022-10-08T20:16:59.425Z,2.58
2022-10-08T20:19:28.419Z,2.38
2022-10-08T20:21:56.179Z,2.42
2022-10-08T20:24:23.926Z,2.80
2022-10-08T20:26:51.626Z,2.35
2022-10-08T20:29:20.705Z,2.50
2022-10-08T20:31:49.638Z,3.28
2022-10-08T20:34:18.524Z,2.90
2022-10-08T20:36:47.945Z,2.75
2022-10-08T20:39:16.450Z,3.53
2022-10-08T20:41:44.094Z,2.70
2022-10-08T20:44:12.038Z,2.95
2022-10-08T20:46:39.961Z,2.92
2022-10-08T20:49:08.141Z,3.35
2022-10-08T20:51:35.827Z,2.78
2022-10-08T20:54:05.860Z,2.67
2022-10-08T20:56:39.237Z,3.05
2022-10-08T20:59:07.903Z,3.40
2022-10-08T21:01:37.496Z,2.78
2022-10-08T21:04:05.693Z,2.78
2022-10-08T21:06:36.731Z,3.00
2022-10-08T21:09:24.249Z,3.70
2022-10-08T21:11:53.584Z,2.85
2022-10-08T21:14:22.821Z,3.10
2022-10-08T21:16:50.933Z,3.38
2022-10-08T21:19:21.886Z,2.60
2022-10-08T21:21:49.831Z,2.78
2022-10-08T21:24:17.562Z,3.05
2022-10-08T21:26:46.534Z,3.00
2022-10-08T21:29:15.150Z,2.75
2022-10-08T21:31:43.305Z,2.88
2022-10-08T21:34:11.564Z,2.78
2022-10-08T21:36:40.354Z,3.00
2022-10-08T21:39:08.836Z,2.80
2022-10-08T21:41:38.133Z,3.20
2022-10-08T21:44:08.967Z,2.90
2022-10-08T21:46:38.321Z,2.80
2022-10-08T21:49:06.820Z,3.28
2022-10-08T21:51:34.567Z,3.85
2022-10-08T21:54:03.017Z,3.03
2022-10-08T21:56:32.036Z,3.25
2022-10-08T21:59:01.177Z,3.03
2022-10-08T22:01:30.926Z,2.80
2022-10-08T22:03:59.809Z,2.92
2022-10-08T22:06:28.081Z,3.35
2022-10-08T22:08:56.190Z,2.95
2022-10-08T22:11:24.187Z,2.78
2022-10-08T22:13:52.482Z,2.20
2022-10-08T22:16:21.786Z,3.10
2022-10-08T22:18:50.794Z,2.92
2022-10-08T22:21:19.723Z,2.67
2022-10-08T22:23:47.881Z,2.80
2022-10-08T22:26:16.385Z,2.90
2022-10-08T22:28:44.761Z,2.78
2022-10-08T22:31:13.758Z,2.63
2022-10-08T22:33:41.736Z,2.90
2022-10-08T22:36:12.069Z,2.92
2022-10-08T22:38:40.606Z,3.17
2022-10-08T22:41:09.670Z,2.88
2022-10-08T22:43:37.612Z,2.92
2022-10-08T22:46:06.431Z,3.15
2022-10-08T22:48:34.199Z,2.78
2022-10-08T22:51:02.729Z,2.78
2022-10-08T22:53:31.917Z,2.88
2022-10-08T22:55:59.628Z,2.85
2022-10-08T22:58:27.501Z,3.10
2022-10-08T23:00:58.809Z,3.30
2022-10-08T23:03:26.531Z,2.70
2022-10-08T23:06:02.363Z,2.92
2022-10-08T23:08:30.245Z,2.88
2022-10-08T23:10:59.622Z,3.10
2022-10-08T23:13:27.327Z,3.22
2022-10-08T23:16:03.490Z,3.42
2022-10-08T23:18:32.172Z,3.40
2022-10-08T23:21:01.582Z,3.05
2022-10-08T23:23:29.255Z,3.08
2022-10-08T23:25:57.646Z,3.35
2022-10-08T23:28:27.443Z,3.53
2022-10-08T23:30:55.122Z,3.13
2022-10-08T23:33:22.791Z,2.72
2022-10-08T23:35:57.627Z,2.80
2022-10-08T23:38:25.263Z,2.72
2022-10-08T23:40:53.092Z,2.83
2022-10-08T23:43:20.733Z,3.38
2022-10-08T23:45:49.822Z,2.90
2022-10-08T23:48:17.721Z,3.50
2022-10-08T23:50:49.443Z,3.35
2022-10-08T23:53:17.174Z,3.47
2022-10-08T23:55:45.110Z,3.25
2022-10-08T23:58:12.909Z,3.28
